createdAt,value
2019-02-15T00:01:00.039Z,2.70
2019-02-15T00:02:04.174Z,2.70
2019-02-15T00:03:08.833Z,2.70
2019-02-15T00:04:13.049Z,2.70
2019-02-15T00:05:17.342Z,2.70
2019-02-15T00:06:21.673Z,2.70
2019-02-15T00:07:26.077Z,2.70
2019-02-15T00:08:30.417Z,2.60
2019-02-15T00:09:34.689Z,2.60
2019-02-15T00:10:38.979Z,2.60
2019-02-15T00:11:43.270Z,2.60
2019-02-15T00:12:47.425Z,2.80
2019-02-15T00:13:51.692Z,2.80
2019-02-15T00:14:55.941Z,2.80
2019-02-15T00:16:00.191Z,2.70
2019-02-15T00:17:04.579Z,2.60
2019-02-15T00:18:26.434Z,2.70
2019-02-15T00:19:40.374Z,2.70
2019-02-15T00:20:50.931Z,2.70
2019-02-15T00:21:55.122Z,2.60
2019-02-15T00:22:59.490Z,2.50
2019-02-15T00:24:03.629Z,2.50
2019-02-15T00:25:07.817Z,2.50
2019-02-15T00:26:12.101Z,2.50
2019-02-15T00:27:16.295Z,2.50
2019-02-15T00:28:20.573Z,2.50
2019-02-15T00:29:24.857Z,2.60
2019-02-15T00:30:29.086Z,2.60
2019-02-15T00:31:33.384Z,2.70
2019-02-15T00:32:37.915Z,2.80
2019-02-15T00:33:42.054Z,2.80
2019-02-15T00:34:46.189Z,2.80
2019-02-15T00:35:50.365Z,2.80
2019-02-15T00:36:54.524Z,2.70
2019-02-15T00:37:58.823Z,2.80
2019-02-15T00:39:02.991Z,2.80
2019-02-15T00:40:07.147Z,2.70
2019-02-15T00:41:11.432Z,2.80
2019-02-15T00:42:15.596Z,2.80
2019-02-15T00:43:22.376Z,2.80
2019-02-15T00:44:25.993Z,2.70
2019-02-15T00:45:32.171Z,2.70
2019-02-15T00:46:58.809Z,2.70
2019-02-15T00:48:07.007Z,2.60
2019-02-15T00:49:16.367Z,2.60
2019-02-15T00:50:38.317Z,2.60
2019-02-15T00:51:48.501Z,2.50
2019-02-15T00:53:14.611Z,2.40
2019-02-15T00:54:24.063Z,2.40
2019-02-15T00:55:37.372Z,2.40
2019-02-15T00:56:58.920Z,2.40
2019-02-15T00:58:20.944Z,2.40
2019-02-15T00:59:46.971Z,2.40
2019-02-15T01:01:08.106Z,2.40
2019-02-15T01:02:27.505Z,2.50
2019-02-15T01:03:55.866Z,2.50
2019-02-15T01:05:11.011Z,2.60
2019-02-15T01:06:25.137Z,2.50
2019-02-15T01:07:38.755Z,2.60
2019-02-15T01:09:04.998Z,2.60
2019-02-15T01:10:31.219Z,2.60
2019-02-15T01:11:48.757Z,2.50
2019-02-15T01:13:00.405Z,2.50
2019-02-15T01:14:07.545Z,2.60
2019-02-15T01:15:11.720Z,2.60
2019-02-15T01:16:15.874Z,2.50
2019-02-15T01:17:20.187Z,2.50
2019-02-15T01:18:24.427Z,2.50
2019-02-15T01:19:28.749Z,2.50
2019-02-15T01:20:33.320Z,2.60
2019-02-15T01:21:37.546Z,2.60
2019-02-15T01:22:41.812Z,2.60
2019-02-15T01:23:45.982Z,2.50
2019-02-15T01:24:50.106Z,2.50
2019-02-15T01:26:04.241Z,2.40
2019-02-15T01:27:26.411Z,2.40
2019-02-15T01:28:42.698Z,2.30
2019-02-15T01:30:14.804Z,2.40
2019-02-15T01:31:53.369Z,2.40
2019-02-15T01:33:04.763Z,2.40
2019-02-15T01:34:34.089Z,2.50
2019-02-15T01:35:57.494Z,2.40
2019-02-15T01:37:10.191Z,2.50
2019-02-15T01:38:33.374Z,2.40
2019-02-15T01:39:59.399Z,2.40
2019-02-15T01:41:19.526Z,2.30
2019-02-15T01:42:33.245Z,2.30
2019-02-15T01:43:56.422Z,2.20
2019-02-15T01:45:10.440Z,2.20
2019-02-15T01:46:21.298Z,2.20
2019-02-15T01:47:29.298Z,2.10
2019-02-15T01:48:33.592Z,2.10
2019-02-15T01:49:37.749Z,2.20
2019-02-15T01:50:42.011Z,2.20
2019-02-15T01:51:46.295Z,2.20
2019-02-15T01:52:50.569Z,2.30
2019-02-15T01:53:54.856Z,2.40
2019-02-15T01:54:59.171Z,2.50
2019-02-15T01:56:03.373Z,2.50
2019-02-15T01:57:07.562Z,2.50
2019-02-15T01:58:11.854Z,2.50
2019-02-15T01:59:16.089Z,2.50
2019-02-15T02:00:21.613Z,2.40
2019-02-15T02:01:27.463Z,2.40
2019-02-15T02:02:31.694Z,2.40
2019-02-15T02:03:35.849Z,2.40
2019-02-15T02:04:40.078Z,2.30
2019-02-15T02:05:44.289Z,2.30
2019-02-15T02:06:48.441Z,2.30
2019-02-15T02:07:52.641Z,2.20
2019-02-15T02:08:57.305Z,2.10
2019-02-15T02:10:01.490Z,2.10
2019-02-15T02:11:05.825Z,2.10
2019-02-15T02:12:10.394Z,2.10
2019-02-15T02:13:14.706Z,2.10
2019-02-15T02:14:18.995Z,2.10
2019-02-15T02:15:23.255Z,2.20
2019-02-15T02:16:27.474Z,2.30
2019-02-15T02:17:31.759Z,2.30
2019-02-15T02:18:35.959Z,2.30
2019-02-15T02:19:40.095Z,2.30
2019-02-15T02:20:44.920Z,2.30
2019-02-15T02:21:49.224Z,2.20
2019-02-15T02:22:53.501Z,2.20
2019-02-15T02:23:57.699Z,2.20
2019-02-15T02:25:01.929Z,2.20
2019-02-15T02:26:06.157Z,2.20
2019-02-15T02:27:10.371Z,2.20
2019-02-15T02:28:14.665Z,2.10
2019-02-15T02:29:18.914Z,2.20
2019-02-15T02:30:23.265Z,2.20
2019-02-15T02:31:27.642Z,2.20
2019-02-15T02:32:31.835Z,2.20
2019-02-15T02:33:36.166Z,2.30
2019-02-15T02:34:40.503Z,2.50
2019-02-15T02:35:44.750Z,2.50
2019-02-15T02:36:53.713Z,2.40
2019-02-15T02:37:58.002Z,2.30
2019-02-15T02:39:02.626Z,2.30
2019-02-15T02:40:07.688Z,2.30
2019-02-15T02:41:12.011Z,2.20
2019-02-15T02:42:16.484Z,2.20
2019-02-15T02:43:20.767Z,2.10
2019-02-15T02:44:24.951Z,2.10
2019-02-15T02:45:29.220Z,2.00
2019-02-15T02:46:33.487Z,2.00
2019-02-15T02:47:37.781Z,2.00
2019-02-15T02:48:42.056Z,2.00
2019-02-15T02:49:46.765Z,2.10
2019-02-15T02:50:51.140Z,2.00
2019-02-15T02:51:55.353Z,2.10
2019-02-15T02:52:59.496Z,2.10
2019-02-15T02:54:03.819Z,2.10
2019-02-15T02:55:08.180Z,2.10
2019-02-15T02:56:12.469Z,2.10
2019-02-15T02:57:16.721Z,2.10
2019-02-15T02:58:20.851Z,2.10
2019-02-15T02:59:25.143Z,2.20
2019-02-15T03:00:33.541Z,2.20
2019-02-15T03:01:35.237Z,2.20
2019-02-15T03:02:39.389Z,2.20
2019-02-15T03:03:43.634Z,2.20
2019-02-15T03:04:47.986Z,2.20
2019-02-15T03:05:52.243Z,2.10
2019-02-15T03:06:56.527Z,2.10
2019-02-15T03:08:00.872Z,2.10
2019-02-15T03:09:07.936Z,2.00
2019-02-15T03:10:12.303Z,2.00
2019-02-15T03:11:16.588Z,2.00
2019-02-15T03:12:20.901Z,1.90
2019-02-15T03:13:25.262Z,1.90
2019-02-15T03:14:29.781Z,1.90
2019-02-15T03:15:35.027Z,1.90
2019-02-15T03:16:39.294Z,1.90
2019-02-15T03:17:43.527Z,1.90
2019-02-15T03:18:47.861Z,1.90
2019-02-15T03:19:52.160Z,1.90
2019-02-15T03:20:56.279Z,1.90
2019-02-15T03:22:00.479Z,1.90
2019-02-15T03:23:04.737Z,1.90
2019-02-15T03:24:09.097Z,1.90
2019-02-15T03:25:13.368Z,1.90
2019-02-15T03:26:17.560Z,1.90
2019-02-15T03:27:21.827Z,1.90
2019-02-15T03:28:26.109Z,1.90
2019-02-15T03:29:30.275Z,1.90
2019-02-15T03:30:34.496Z,1.90
2019-02-15T03:31:38.893Z,1.90
2019-02-15T03:32:43.203Z,1.90
2019-02-15T03:33:47.485Z,2.00
2019-02-15T03:34:51.691Z,2.00
2019-02-15T03:35:58.984Z,1.90
2019-02-15T03:37:28.368Z,1.90
2019-02-15T03:38:38.280Z,1.80
2019-02-15T03:39:54.925Z,1.80
2019-02-15T03:41:02.259Z,1.90
2019-02-15T03:42:06.749Z,2.00
2019-02-15T03:43:11.030Z,2.00
2019-02-15T03:44:21.715Z,2.00
2019-02-15T03:45:21.367Z,2.00
2019-02-15T03:46:25.898Z,2.00
2019-02-15T03:47:30.232Z,2.00
2019-02-15T03:48:34.343Z,1.90
2019-02-15T03:49:38.627Z,1.90
2019-02-15T03:50:42.917Z,1.90
2019-02-15T03:51:47.199Z,1.90
2019-02-15T03:52:51.499Z,2.10
2019-02-15T03:53:55.739Z,2.20
2019-02-15T03:55:00.040Z,2.20
2019-02-15T03:56:04.475Z,2.20
2019-02-15T03:57:08.881Z,2.10
2019-02-15T03:58:13.135Z,2.00
2019-02-15T03:59:17.429Z,2.00
2019-02-15T04:00:21.987Z,2.10
2019-02-15T04:01:26.236Z,2.10
2019-02-15T04:02:30.473Z,2.10
2019-02-15T04:03:34.632Z,2.10
2019-02-15T04:04:38.823Z,2.10
2019-02-15T04:05:43.095Z,2.10
2019-02-15T04:06:47.271Z,2.10
2019-02-15T04:07:51.606Z,1.90
2019-02-15T04:08:55.874Z,1.80
2019-02-15T04:10:00.474Z,1.90
2019-02-15T04:11:04.956Z,1.90
2019-02-15T04:12:09.109Z,2.00
2019-02-15T04:13:13.340Z,2.00
2019-02-15T04:14:17.599Z,2.10
2019-02-15T04:15:21.986Z,2.10
2019-02-15T04:16:26.305Z,2.10
2019-02-15T04:17:31.023Z,2.00
2019-02-15T04:18:35.255Z,2.00
2019-02-15T04:19:39.519Z,1.90
2019-02-15T04:20:43.672Z,1.80
2019-02-15T04:21:48.251Z,1.70
2019-02-15T04:22:52.447Z,1.70
2019-02-15T04:23:56.761Z,1.60
2019-02-15T04:25:00.916Z,1.60
2019-02-15T04:26:05.177Z,1.70
2019-02-15T04:27:09.343Z,1.60
2019-02-15T04:28:13.591Z,1.60
2019-02-15T04:29:17.705Z,1.60
2019-02-15T04:30:22.000Z,1.60
2019-02-15T04:31:26.245Z,1.60
2019-02-15T04:32:30.525Z,1.60
2019-02-15T04:33:34.847Z,1.60
2019-02-15T04:34:39.008Z,1.60
2019-02-15T04:35:43.214Z,1.60
2019-02-15T04:36:47.475Z,1.60
2019-02-15T04:37:51.726Z,1.60
2019-02-15T04:38:55.999Z,1.70
2019-02-15T04:40:00.473Z,1.80
2019-02-15T04:41:04.869Z,1.70
2019-02-15T04:42:09.097Z,1.70
2019-02-15T04:43:13.321Z,1.80
2019-02-15T04:44:17.525Z,1.80
2019-02-15T04:45:21.794Z,1.80
2019-02-15T04:46:26.060Z,1.90
2019-02-15T04:47:30.251Z,1.90
2019-02-15T04:48:34.546Z,1.90
2019-02-15T04:49:38.792Z,1.80
2019-02-15T04:50:43.071Z,1.80
2019-02-15T04:51:47.400Z,1.70
2019-02-15T04:52:51.577Z,1.70
2019-02-15T04:53:55.774Z,1.80
2019-02-15T04:54:59.951Z,1.80
2019-02-15T04:56:04.104Z,2.00
2019-02-15T04:57:08.408Z,2.00
2019-02-15T04:58:12.686Z,2.00
2019-02-15T04:59:16.879Z,2.20
2019-02-15T05:00:21.236Z,2.10
2019-02-15T05:01:25.462Z,2.00
2019-02-15T05:02:29.732Z,1.90
2019-02-15T05:03:34.013Z,1.90
2019-02-15T05:04:38.205Z,1.90
2019-02-15T05:05:42.711Z,1.80
2019-02-15T05:06:46.957Z,1.80
2019-02-15T05:07:51.207Z,1.80
2019-02-15T05:08:55.429Z,1.80
2019-02-15T05:09:59.668Z,1.80
2019-02-15T05:11:03.835Z,1.80
2019-02-15T05:12:08.011Z,1.90
2019-02-15T05:13:12.498Z,1.90
2019-02-15T05:14:16.646Z,1.80
2019-02-15T05:15:20.934Z,1.70
2019-02-15T05:16:25.260Z,1.60
2019-02-15T05:17:29.602Z,1.60
2019-02-15T05:18:33.877Z,1.60
2019-02-15T05:19:38.155Z,1.70
2019-02-15T05:20:42.443Z,1.70
2019-02-15T05:21:46.716Z,1.60
2019-02-15T05:22:50.968Z,1.60
2019-02-15T05:23:55.277Z,1.60
2019-02-15T05:24:59.551Z,1.60
2019-02-15T05:26:03.713Z,1.60
2019-02-15T05:27:08.013Z,1.60
2019-02-15T05:28:12.333Z,1.50
2019-02-15T05:29:16.593Z,1.60
2019-02-15T05:30:20.868Z,1.70
2019-02-15T05:31:25.174Z,1.80
2019-02-15T05:32:29.441Z,1.80
2019-02-15T05:33:35.547Z,1.80
2019-02-15T05:34:39.753Z,1.70
2019-02-15T05:35:44.128Z,1.70
2019-02-15T05:36:48.490Z,1.70
2019-02-15T05:37:52.681Z,1.70
2019-02-15T05:38:56.973Z,1.70
2019-02-15T05:40:01.237Z,1.80
2019-02-15T05:41:05.838Z,1.80
2019-02-15T05:42:09.966Z,1.90
2019-02-15T05:43:14.301Z,2.00
2019-02-15T05:44:18.531Z,1.90
2019-02-15T05:45:22.808Z,1.90
2019-02-15T05:46:27.039Z,1.80
2019-02-15T05:47:31.215Z,1.60
2019-02-15T05:48:35.556Z,1.60
2019-02-15T05:49:39.765Z,1.50
2019-02-15T05:50:44.090Z,1.40
2019-02-15T05:51:48.290Z,1.50
2019-02-15T05:52:52.673Z,1.40
2019-02-15T05:53:57.283Z,1.30
2019-02-15T05:55:01.607Z,1.30
2019-02-15T05:56:05.993Z,1.40
2019-02-15T05:57:10.345Z,1.60
2019-02-15T05:58:14.468Z,1.80
2019-02-15T05:59:18.648Z,1.80
2019-02-15T06:00:22.853Z,1.80
2019-02-15T06:01:28.228Z,1.70
2019-02-15T06:02:32.456Z,1.70
2019-02-15T06:03:36.569Z,1.70
2019-02-15T06:04:40.872Z,1.60
2019-02-15T06:05:45.163Z,1.60
2019-02-15T06:06:49.349Z,1.70
2019-02-15T06:07:53.527Z,1.80
2019-02-15T06:08:58.003Z,1.70
2019-02-15T06:10:02.169Z,1.70
2019-02-15T06:11:08.174Z,1.70
2019-02-15T06:12:12.309Z,1.70
2019-02-15T06:13:16.556Z,1.70
2019-02-15T06:14:20.880Z,1.70
2019-02-15T06:15:25.041Z,1.70
2019-02-15T06:16:29.220Z,1.60
2019-02-15T06:17:33.550Z,1.60
2019-02-15T06:18:37.827Z,1.60
2019-02-15T06:19:42.087Z,1.70
2019-02-15T06:20:46.341Z,1.70
2019-02-15T06:21:50.588Z,1.70
2019-02-15T06:22:54.757Z,1.70
2019-02-15T06:23:59.023Z,1.70
2019-02-15T06:25:03.203Z,1.60
2019-02-15T06:26:07.425Z,1.70
2019-02-15T06:27:11.773Z,1.60
2019-02-15T06:28:15.956Z,1.70
2019-02-15T06:29:20.258Z,1.70
2019-02-15T06:30:24.442Z,1.70
2019-02-15T06:31:28.715Z,1.70
2019-02-15T06:32:32.897Z,1.60
2019-02-15T06:33:37.166Z,1.70
2019-02-15T06:34:41.469Z,1.70
2019-02-15T06:35:45.768Z,1.60
2019-02-15T06:36:49.939Z,1.50
2019-02-15T06:37:54.466Z,1.50
2019-02-15T06:38:58.771Z,1.50
2019-02-15T06:40:03.076Z,1.50
2019-02-15T06:41:07.253Z,1.50
2019-02-15T06:42:11.547Z,1.40
2019-02-15T06:43:15.843Z,1.50
2019-02-15T06:44:20.121Z,1.50
2019-02-15T06:45:25.542Z,1.50
2019-02-15T06:46:29.859Z,1.50
2019-02-15T06:47:34.179Z,1.50
2019-02-15T06:48:38.345Z,1.60
2019-02-15T06:49:42.621Z,1.70
2019-02-15T06:50:47.095Z,1.90
2019-02-15T06:51:51.435Z,1.90
2019-02-15T06:52:55.674Z,1.90
2019-02-15T06:54:00.030Z,1.90
2019-02-15T06:55:04.247Z,1.90
2019-02-15T06:56:08.519Z,1.90
2019-02-15T06:57:12.713Z,1.80
2019-02-15T06:58:16.941Z,1.70
2019-02-15T06:59:39.037Z,1.70
2019-02-15T07:01:00.937Z,1.70
2019-02-15T07:02:39.219Z,1.80
2019-02-15T07:04:05.487Z,1.80
2019-02-15T07:05:25.661Z,1.80
2019-02-15T07:06:29.821Z,1.90
2019-02-15T07:07:34.181Z,1.90
2019-02-15T07:08:38.410Z,1.90
2019-02-15T07:09:42.889Z,2.00
2019-02-15T07:10:47.109Z,2.00
2019-02-15T07:11:51.286Z,1.90
2019-02-15T07:12:55.490Z,1.90
2019-02-15T07:13:59.673Z,1.90
2019-02-15T07:15:03.951Z,1.80
2019-02-15T07:16:08.117Z,1.70
2019-02-15T07:17:12.399Z,1.70
2019-02-15T07:18:16.629Z,1.70
2019-02-15T07:19:21.249Z,1.70
2019-02-15T07:20:25.489Z,1.70
2019-02-15T07:21:29.842Z,1.70
2019-02-15T07:22:34.129Z,1.70
2019-02-15T07:23:38.428Z,1.80
2019-02-15T07:24:42.575Z,1.80
2019-02-15T07:25:46.747Z,1.80
2019-02-15T07:26:51.012Z,1.80
2019-02-15T07:27:55.205Z,1.80
2019-02-15T07:28:59.472Z,1.80
2019-02-15T07:30:03.895Z,1.80
2019-02-15T07:31:08.284Z,1.90
2019-02-15T07:32:12.600Z,1.90
2019-02-15T07:33:16.949Z,1.90
2019-02-15T07:34:21.269Z,1.90
2019-02-15T07:35:25.883Z,1.90
2019-02-15T07:36:30.109Z,1.90
2019-02-15T07:37:34.434Z,2.00
2019-02-15T07:38:38.691Z,2.00
2019-02-15T07:39:42.971Z,2.00
2019-02-15T07:40:47.132Z,1.90
2019-02-15T07:41:51.490Z,1.90
2019-02-15T07:42:55.671Z,1.90
2019-02-15T07:43:59.787Z,1.90
2019-02-15T07:45:04.181Z,1.90
2019-02-15T07:46:08.404Z,2.00
2019-02-15T07:47:12.727Z,2.10
2019-02-15T07:48:16.877Z,2.10
2019-02-15T07:49:26.801Z,2.10
2019-02-15T07:50:27.037Z,2.10
2019-02-15T07:51:31.229Z,2.10
2019-02-15T07:52:35.528Z,2.10
2019-02-15T07:53:39.856Z,2.10
2019-02-15T07:54:44.137Z,2.10
2019-02-15T07:55:48.787Z,2.10
2019-02-15T07:56:53.064Z,2.10
2019-02-15T07:57:57.521Z,2.10
2019-02-15T07:59:01.791Z,2.10
2019-02-15T08:00:06.944Z,2.10
2019-02-15T08:01:11.287Z,2.20
2019-02-15T08:02:15.585Z,2.20
2019-02-15T08:03:19.842Z,2.20
2019-02-15T08:04:24.147Z,2.30
2019-02-15T08:05:28.465Z,2.30
2019-02-15T08:06:32.812Z,2.30
2019-02-15T08:07:37.125Z,2.40
2019-02-15T08:08:41.406Z,2.40
2019-02-15T08:09:45.547Z,2.50
2019-02-15T08:10:49.859Z,2.50
2019-02-15T08:11:54.031Z,2.50
2019-02-15T08:12:58.213Z,2.50
2019-02-15T08:14:02.333Z,2.50
2019-02-15T08:15:07.553Z,2.50
2019-02-15T08:16:11.893Z,2.50
2019-02-15T08:17:16.262Z,2.50
2019-02-15T08:18:20.561Z,2.50
2019-02-15T08:19:24.882Z,2.50
2019-02-15T08:20:29.115Z,2.60
2019-02-15T08:21:33.419Z,2.60
2019-02-15T08:22:37.700Z,2.60
2019-02-15T08:23:42.389Z,2.60
2019-02-15T08:24:47.071Z,2.60
2019-02-15T08:25:51.333Z,2.60
2019-02-15T08:26:55.514Z,2.60
2019-02-15T08:28:05.615Z,2.60
2019-02-15T08:29:09.962Z,2.70
2019-02-15T08:30:14.227Z,2.80
2019-02-15T08:31:18.397Z,2.80
2019-02-15T08:32:22.694Z,2.80
2019-02-15T08:33:26.972Z,2.80
2019-02-15T08:34:31.315Z,2.90
2019-02-15T08:35:35.640Z,2.90
2019-02-15T08:36:39.786Z,2.90
2019-02-15T08:37:43.960Z,2.90
2019-02-15T08:38:48.240Z,2.90
2019-02-15T08:39:52.655Z,3.00
2019-02-15T08:40:56.923Z,3.00
2019-02-15T08:42:04.344Z,3.00
2019-02-15T08:43:07.141Z,3.00
2019-02-15T08:44:11.365Z,3.10
2019-02-15T08:45:15.560Z,3.10
2019-02-15T08:46:19.741Z,3.10
2019-02-15T08:47:23.901Z,3.00
2019-02-15T08:48:28.044Z,3.00
2019-02-15T08:49:32.202Z,3.00
2019-02-15T08:50:36.438Z,3.00
2019-02-15T08:51:40.727Z,3.00
2019-02-15T08:52:44.977Z,3.10
2019-02-15T08:53:50.445Z,3.00
2019-02-15T08:54:54.809Z,3.00
2019-02-15T08:55:59.001Z,3.10
2019-02-15T08:57:03.323Z,3.10
2019-02-15T08:58:07.609Z,3.20
2019-02-15T08:59:11.933Z,3.20
2019-02-15T09:00:16.079Z,3.30
2019-02-15T09:01:20.244Z,3.30
2019-02-15T09:02:25.386Z,3.30
2019-02-15T09:03:29.581Z,3.30
2019-02-15T09:04:33.749Z,3.30
2019-02-15T09:05:37.929Z,3.50
2019-02-15T09:06:42.157Z,3.40
2019-02-15T09:07:46.320Z,3.50
2019-02-15T09:08:50.520Z,3.50
2019-02-15T09:09:54.825Z,3.40
2019-02-15T09:10:59.120Z,3.30
2019-02-15T09:12:03.383Z,3.30
2019-02-15T09:13:07.591Z,3.30
2019-02-15T09:14:11.876Z,3.20
2019-02-15T09:15:18.971Z,3.30
2019-02-15T09:16:23.120Z,3.40
2019-02-15T09:17:27.410Z,3.40
2019-02-15T09:18:31.899Z,3.40
2019-02-15T09:19:36.112Z,3.40
2019-02-15T09:20:40.343Z,3.50
2019-02-15T09:21:44.517Z,3.50
2019-02-15T09:22:48.783Z,3.50
2019-02-15T09:23:53.103Z,3.50
2019-02-15T09:24:57.358Z,3.50
2019-02-15T09:26:01.537Z,3.50
2019-02-15T09:27:24.715Z,3.50
2019-02-15T09:28:45.176Z,3.60
2019-02-15T09:29:49.499Z,3.60
2019-02-15T09:30:54.702Z,3.60
2019-02-15T09:31:59.029Z,3.70
2019-02-15T09:33:03.286Z,3.70
2019-02-15T09:34:07.399Z,3.90
2019-02-15T09:35:11.951Z,3.90
2019-02-15T09:36:16.275Z,4.00
2019-02-15T09:37:20.916Z,4.00
2019-02-15T09:38:25.212Z,4.00
2019-02-15T09:39:29.447Z,4.00
2019-02-15T09:40:33.749Z,4.00
2019-02-15T09:41:38.073Z,3.90
2019-02-15T09:42:42.405Z,3.90
2019-02-15T09:43:46.605Z,3.90
2019-02-15T09:44:50.941Z,4.00
2019-02-15T09:45:55.213Z,4.00
2019-02-15T09:46:59.627Z,4.10
2019-02-15T09:48:03.932Z,4.20
2019-02-15T09:49:08.097Z,4.30
2019-02-15T09:50:12.540Z,4.30
2019-02-15T09:51:16.859Z,4.40
2019-02-15T09:52:21.367Z,4.40
2019-02-15T09:53:25.713Z,4.50
2019-02-15T09:54:29.971Z,4.50
2019-02-15T09:55:34.255Z,4.50
2019-02-15T09:56:38.567Z,4.50
2019-02-15T09:57:42.774Z,4.50
2019-02-15T09:58:47.022Z,4.50
2019-02-15T09:59:51.161Z,4.50
2019-02-15T10:00:55.395Z,4.50
2019-02-15T10:01:59.546Z,4.50
2019-02-15T10:03:03.801Z,4.50
2019-02-15T10:04:07.962Z,4.50
2019-02-15T10:05:12.240Z,4.60
2019-02-15T10:06:16.579Z,4.60
2019-02-15T10:07:20.704Z,4.60
2019-02-15T10:08:25.017Z,4.60
2019-02-15T10:09:29.212Z,4.70
2019-02-15T10:10:33.467Z,4.70
2019-02-15T10:11:37.645Z,4.70
2019-02-15T10:12:41.789Z,4.70
2019-02-15T10:13:45.943Z,4.70
2019-02-15T10:14:50.085Z,4.70
2019-02-15T10:15:54.266Z,4.70
2019-02-15T10:16:58.373Z,4.80
2019-02-15T10:18:02.548Z,4.80
2019-02-15T10:19:07.206Z,4.80
2019-02-15T10:20:11.443Z,4.90
2019-02-15T10:21:15.597Z,4.90
2019-02-15T10:22:19.804Z,5.00
2019-02-15T10:23:24.084Z,5.00
2019-02-15T10:24:28.225Z,5.00
2019-02-15T10:25:32.463Z,5.00
2019-02-15T10:26:36.779Z,5.00
2019-02-15T10:27:41.205Z,5.00
2019-02-15T10:28:45.445Z,5.10
2019-02-15T10:29:49.712Z,5.10
2019-02-15T10:30:54.405Z,5.10
2019-02-15T10:31:58.724Z,5.20
2019-02-15T10:33:03.034Z,5.20
2019-02-15T10:34:07.354Z,5.40
2019-02-15T10:35:11.876Z,5.30
2019-02-15T10:36:16.053Z,5.40
2019-02-15T10:37:39.325Z,5.50
2019-02-15T10:38:43.475Z,5.50
2019-02-15T10:39:47.781Z,5.50
2019-02-15T10:40:52.083Z,5.50
2019-02-15T10:41:56.259Z,5.50
2019-02-15T10:43:00.423Z,5.60
2019-02-15T10:44:05.017Z,5.60
2019-02-15T10:45:10.345Z,5.70
2019-02-15T10:46:14.591Z,5.80
2019-02-15T10:47:25.055Z,5.70
2019-02-15T10:48:24.805Z,5.80
2019-02-15T10:49:28.999Z,5.80
2019-02-15T10:50:33.257Z,5.90
2019-02-15T10:51:37.401Z,5.90
2019-02-15T10:52:41.720Z,5.90
2019-02-15T10:53:46.029Z,6.00
2019-02-15T10:54:50.651Z,6.10
2019-02-15T10:55:54.965Z,6.20
2019-02-15T10:56:59.275Z,6.20
2019-02-15T10:58:03.549Z,6.30
2019-02-15T10:59:08.103Z,6.40
2019-02-15T11:00:17.121Z,6.40
2019-02-15T11:01:21.435Z,6.50
2019-02-15T11:02:25.731Z,6.50
2019-02-15T11:03:29.990Z,6.50
2019-02-15T11:04:34.287Z,6.50
2019-02-15T11:05:38.767Z,6.40
2019-02-15T11:06:43.084Z,6.40
2019-02-15T11:07:48.078Z,6.30
2019-02-15T11:08:52.569Z,6.30
2019-02-15T11:09:57.075Z,6.30
2019-02-15T11:11:01.372Z,6.20
2019-02-15T11:12:05.559Z,6.30
2019-02-15T11:13:09.737Z,6.20
2019-02-15T11:14:13.923Z,6.20
2019-02-15T11:15:18.247Z,6.20
2019-02-15T11:16:22.569Z,6.20
2019-02-15T11:17:26.852Z,6.20
2019-02-15T11:18:31.037Z,6.20
2019-02-15T11:19:35.337Z,6.20
2019-02-15T11:20:39.687Z,6.20
2019-02-15T11:21:43.975Z,6.20
2019-02-15T11:22:48.292Z,6.20
2019-02-15T11:23:52.545Z,6.20
2019-02-15T11:24:56.829Z,6.20
2019-02-15T11:26:01.039Z,6.20
2019-02-15T11:27:05.312Z,6.20
2019-02-15T11:28:09.481Z,6.20
2019-02-15T11:29:13.749Z,6.30
2019-02-15T11:30:18.503Z,6.40
2019-02-15T11:31:22.757Z,6.30
2019-02-15T11:32:26.921Z,6.30
2019-02-15T11:33:31.170Z,6.30
2019-02-15T11:34:35.345Z,6.40
2019-02-15T11:35:39.619Z,6.40
2019-02-15T11:36:43.853Z,6.40
2019-02-15T11:37:48.081Z,6.40
2019-02-15T11:38:52.211Z,6.40
2019-02-15T11:39:56.517Z,6.40
2019-02-15T11:41:00.720Z,6.40
2019-02-15T11:42:05.037Z,6.50
2019-02-15T11:43:09.288Z,6.50
2019-02-15T11:44:13.415Z,6.50
2019-02-15T11:45:17.707Z,6.50
2019-02-15T11:46:21.877Z,6.60
2019-02-15T11:47:26.181Z,6.60
2019-02-15T11:48:30.329Z,6.60
2019-02-15T11:49:34.515Z,6.60
2019-02-15T11:50:38.763Z,6.60
2019-02-15T11:51:42.869Z,6.60
2019-02-15T11:52:47.094Z,6.70
2019-02-15T11:53:51.362Z,6.70
2019-02-15T11:54:56.626Z,6.70
2019-02-15T11:56:00.964Z,6.70
2019-02-15T11:57:05.282Z,6.70
2019-02-15T11:58:09.622Z,6.70
2019-02-15T11:59:14.185Z,6.80
2019-02-15T12:00:23.130Z,6.70
2019-02-15T12:01:27.391Z,6.80
2019-02-15T12:02:31.566Z,6.80
2019-02-15T12:03:35.805Z,6.80
2019-02-15T12:04:39.954Z,6.80
2019-02-15T12:05:44.126Z,6.90
2019-02-15T12:06:48.417Z,6.90
2019-02-15T12:07:52.609Z,6.90
2019-02-15T12:08:57.015Z,6.90
2019-02-15T12:10:01.332Z,6.90
2019-02-15T12:11:05.621Z,6.90
2019-02-15T12:12:10.963Z,6.90
2019-02-15T12:13:15.423Z,7.00
2019-02-15T12:14:19.671Z,7.00
2019-02-15T12:15:23.955Z,7.00
2019-02-15T12:16:28.239Z,7.00
2019-02-15T12:17:32.363Z,7.00
2019-02-15T12:18:36.561Z,7.00
2019-02-15T12:19:40.895Z,7.10
2019-02-15T12:20:45.117Z,7.10
2019-02-15T12:21:49.467Z,7.10
2019-02-15T12:22:53.643Z,7.10
2019-02-15T12:23:57.916Z,7.10
2019-02-15T12:25:02.115Z,7.10
2019-02-15T12:26:06.309Z,7.10
2019-02-15T12:27:10.505Z,7.10
2019-02-15T12:28:15.141Z,7.10
2019-02-15T12:29:19.367Z,7.10
2019-02-15T12:30:23.595Z,7.10
2019-02-15T12:31:27.859Z,7.10
2019-02-15T12:32:32.017Z,7.10
2019-02-15T12:33:36.273Z,7.10
2019-02-15T12:34:40.544Z,7.10
2019-02-15T12:35:44.763Z,7.10
2019-02-15T12:36:49.052Z,7.20
2019-02-15T12:37:53.277Z,7.20
2019-02-15T12:38:57.645Z,7.20
2019-02-15T12:40:01.989Z,7.20
2019-02-15T12:41:06.187Z,7.30
2019-02-15T12:42:10.638Z,7.20
2019-02-15T12:43:14.758Z,7.30
2019-02-15T12:44:19.025Z,7.30
2019-02-15T12:45:23.221Z,7.30
2019-02-15T12:46:27.569Z,7.40
2019-02-15T12:47:31.851Z,7.40
2019-02-15T12:48:36.123Z,7.40
2019-02-15T12:49:40.437Z,7.30
2019-02-15T12:50:45.143Z,7.30
2019-02-15T12:51:49.467Z,7.30
2019-02-15T12:52:53.905Z,7.30
2019-02-15T12:53:58.210Z,7.30
2019-02-15T12:55:03.902Z,7.30
2019-02-15T12:56:08.348Z,7.30
2019-02-15T12:57:12.520Z,7.30
2019-02-15T12:58:16.736Z,7.30
2019-02-15T12:59:21.027Z,7.30
2019-02-15T13:00:25.208Z,7.30
2019-02-15T13:01:29.508Z,7.30
2019-02-15T13:02:33.804Z,7.30
2019-02-15T13:03:38.027Z,7.30
2019-02-15T13:04:42.306Z,7.40
2019-02-15T13:05:46.649Z,7.40
2019-02-15T13:06:50.915Z,7.40
2019-02-15T13:07:55.074Z,7.30
2019-02-15T13:08:59.485Z,7.40
2019-02-15T13:10:04.137Z,7.40
2019-02-15T13:11:08.478Z,7.30
2019-02-15T13:12:12.711Z,7.40
2019-02-15T13:13:16.895Z,7.30
2019-02-15T13:14:21.155Z,7.30
2019-02-15T13:15:25.965Z,7.30
2019-02-15T13:16:30.125Z,7.40
2019-02-15T13:17:34.273Z,7.40
2019-02-15T13:18:38.454Z,7.50
2019-02-15T13:19:42.729Z,7.60
2019-02-15T13:20:46.839Z,7.60
2019-02-15T13:21:51.109Z,7.50
2019-02-15T13:22:55.307Z,7.50
2019-02-15T13:23:59.612Z,7.50
2019-02-15T13:25:03.894Z,7.50
2019-02-15T13:26:08.957Z,7.60
2019-02-15T13:27:13.491Z,7.60
2019-02-15T13:28:17.853Z,7.60
2019-02-15T13:29:22.224Z,7.60
2019-02-15T13:30:26.415Z,7.60
2019-02-15T13:31:30.656Z,7.60
2019-02-15T13:32:34.895Z,7.60
2019-02-15T13:33:39.127Z,7.60
2019-02-15T13:34:43.487Z,7.60
2019-02-15T13:35:47.767Z,7.70
2019-02-15T13:36:51.926Z,7.70
2019-02-15T13:37:56.081Z,7.70
2019-02-15T13:39:00.228Z,7.60
2019-02-15T13:40:04.946Z,7.60
2019-02-15T13:41:09.224Z,7.70
2019-02-15T13:42:13.393Z,7.70
2019-02-15T13:43:17.679Z,7.70
2019-02-15T13:44:21.799Z,7.80
2019-02-15T13:45:26.093Z,7.80
2019-02-15T13:46:30.719Z,7.80
2019-02-15T13:47:35.249Z,7.70
2019-02-15T13:48:39.595Z,7.80
2019-02-15T13:49:43.750Z,7.80
2019-02-15T13:50:48.007Z,7.80
2019-02-15T13:51:52.209Z,7.80
2019-02-15T13:52:56.397Z,7.70
2019-02-15T13:54:00.614Z,7.70
2019-02-15T13:55:05.027Z,7.60
2019-02-15T13:56:09.287Z,7.70
2019-02-15T13:57:13.457Z,7.70
2019-02-15T13:58:17.792Z,7.80
2019-02-15T13:59:22.017Z,7.80
2019-02-15T14:00:26.207Z,7.80
2019-02-15T14:01:30.521Z,7.80
2019-02-15T14:02:34.702Z,7.80
2019-02-15T14:03:39.069Z,7.80
2019-02-15T14:04:43.345Z,7.90
2019-02-15T14:05:47.559Z,7.80
2019-02-15T14:06:54.770Z,7.90
2019-02-15T14:07:59.059Z,7.90
2019-02-15T14:09:04.545Z,8.00
2019-02-15T14:10:10.053Z,8.00
2019-02-15T14:11:14.541Z,8.00
2019-02-15T14:12:18.847Z,8.00
2019-02-15T14:13:22.979Z,8.00
2019-02-15T14:14:27.287Z,8.00
2019-02-15T14:15:31.642Z,8.00
2019-02-15T14:16:35.873Z,8.00
2019-02-15T14:17:44.863Z,7.90
2019-02-15T14:18:46.137Z,8.00
2019-02-15T14:19:50.427Z,8.00
2019-02-15T14:20:54.571Z,8.00
2019-02-15T14:21:58.901Z,8.00
2019-02-15T14:23:03.087Z,8.10
2019-02-15T14:24:07.376Z,8.10
2019-02-15T14:25:12.034Z,8.10
2019-02-15T14:26:16.296Z,8.10
2019-02-15T14:27:20.557Z,8.10
2019-02-15T14:28:24.880Z,8.10
2019-02-15T14:29:29.042Z,8.10
2019-02-15T14:30:33.321Z,8.10